Forest fire From: 19-07-2018 20:00 Until: 20-07-2018 16:00 warning for: Forest fire Level: Yellow info button
suomi:
Metsäpalovaroitus on voimassa.

svenska:
Varning för skogsbrand gäller.

english:
A forest fire warning is in force. 

Extreme high temperature From: 19-07-2018 20:00 Until: 23:00 warning for: Extreme high temperature Level: Yellow info button
suomi:
Hellevaroitus: Lähivuorokauden aikana on odotettavissa tukalaa hellettä.

svenska:
Varning för värmebölja: Under det närmaste dygnet är den svåra hettan att vänta.

english:
Heat wave warning: Warm weather is expected during the coming 24 hours. 


Thunder radar more information blitzortung!


Löydät sääaseman tiedot myös:

European Weather Network

Finland Weather Exchange

Weather Underground

AWEKAS



Weather Underground säähistoriasivu

Päivittäin yhteenveto Heinäkuu 19, 2018 Yksiköt:  Metriset    Englantilaiset   Molemmat
« Edellinen Päivä
Seuraava Päivä »
Päivittäin Viikoittain Kuukausittain Vuosittain Mukautettu
  Tämänhetkinen: Korkea: Matala: Keskiarvo:
Lämpötila: -4.3 °C -17.8 °C -9.4 °C -3.6 °C
Kastepiste: -8.1 °C -17.8 °C -11.1 °C -10 °C
Kosteus: 66 % Humidity % 35 % 50 %
Tuulen nopeus: 0 km/h 0 km/h 0 km/h 0.5 km/h
Tuulenpuuska: 0 km/h 0 km/h - -
Tuuli:Calm - - SSE
Ilmanpaine: 34242.6 hPa 0 hPa 34239.2 hPa -
Sade: 0 mm      
Historical Graphs
 
 
Taulukkotiedot Heinäkuu 19, 2018
Aika Lämpötila Kastepiste Ilmanpaine Tuuli Tuulen nopeus Tuulenpuuska Kosteus Sademäärä (tunneittain)
-17.8 °C -17.8 °C 0 hPa Calm     Humidity % 0 mm
00:00 -9.4 °C -10.6 °C 34327.3 hPa Calm     87 % 0 mm
00:15 -9 °C -10.5 °C 34327.3 hPa Calm     84 % 0 mm
00:30 -8.6 °C -10.3 °C 34330.7 hPa Calm     82 % 0 mm
00:45 -8.2 °C -10.1 °C 34327.3 hPa Calm     80 % 0 mm
01:00 -7.9 °C -9.8 °C 34327.3 hPa Calm     80 % 0 mm
01:15 -7.6 °C -9.8 °C 34327.3 hPa Calm     78 % 0 mm
01:30 -7.3 °C -9.6 °C 34327.3 hPa Calm     77 % 0 mm
01:45 -6.9 °C -9.5 °C 34323.9 hPa Calm   2.6 km/h 75 % 0 mm
02:00 -6.2 °C -9.2 °C 34320.5 hPa Calm   5.1 km/h 71 % 0 mm
02:15 -5.3 °C -8.8 °C 34320.5 hPa Calm     68 % 0 mm
02:30 -4.5 °C -8.9 °C 34320.5 hPa Calm   2.6 km/h 61 % 0 mm
02:45 -4 °C -8.9 °C 34317.1 hPa Calm   2.6 km/h 58 % 0 mm
03:00 -3.5 °C -9.1 °C 34317.1 hPa Calm   5.1 km/h 54 % 0 mm
03:15 -3.1 °C -8.8 °C 34313.7 hPa Calm   2.6 km/h 53 % 0 mm
03:30 -3 °C -8.9 °C 34313.7 hPa Calm   10.3 km/h 52 % 0 mm
03:45 -3.4 °C -8.8 °C 34317.1 hPa Calm   10.3 km/h 55 % 0 mm
04:00 -3.4 °C -8.6 °C 34320.5 hPa Calm   2.6 km/h 57 % 0 mm
04:15 -3.2 °C -9.4 °C 34317.1 hPa Calm   5.1 km/h 50 % 0 mm
04:30 -3 °C -9.8 °C 34317.1 hPa Calm   10.3 km/h 47 % 0 mm
04:45 -2.8 °C -10.2 °C 34313.7 hPa Calm   5.1 km/h 44 % 0 mm
05:00 -2.7 °C -10.3 °C 34310.3 hPa Calm   5.1 km/h 43 % 0 mm
05:15 -2.7 °C -10.2 °C 34310.3 hPa Calm   2.6 km/h 43 % 0 mm
05:30 -2.4 °C -8.9 °C 34307 hPa Calm   7.7 km/h 49 % 0 mm
05:45 -1.9 °C -9.6 °C 34307 hPa Calm   7.7 km/h 43 % 0 mm
06:00 -1.6 °C -10.1 °C 34300.2 hPa SSE 2.6 km/h 18.2 km/h 39 % 0 mm
06:15 -1.8 °C -10.8 °C 34300.2 hPa SSE 5.1 km/h 12.9 km/h 37 % 0 mm
06:30 -1.8 °C -11 °C 34300.2 hPa SE 2.6 km/h 12.9 km/h 36 % 0 mm
06:45 -1.9 °C -10.7 °C 34300.2 hPa SE 2.6 km/h 15.6 km/h 38 % 0 mm
07:00 -1.8 °C -10.4 °C 34300.2 hPa SSE 2.6 km/h 12.9 km/h 39 % 0 mm
07:15 -2.1 °C -9.9 °C 34296.8 hPa Calm   10.3 km/h 42 % 0 mm
07:30 -1.9 °C -9.8 °C 34290 hPa South 2.6 km/h 12.9 km/h 42 % 0 mm
07:45 -1.3 °C -10.8 °C 34286.6 hPa South 2.6 km/h 12.9 km/h 35 % 0 mm
08:00 -1.1 °C -10.4 °C 34283.3 hPa South 2.6 km/h 12.9 km/h 36 % 0 mm
08:15 -0.8 °C -9.9 °C 34276.5 hPa Calm   7.7 km/h 37 % 0 mm
08:30 -1.1 °C -9.9 °C 34276.5 hPa SSW 5.1 km/h 18.2 km/h 38 % 0 mm
08:45 -1.9 °C -9.8 °C 34283.3 hPa Calm   5.1 km/h 42 % 0 mm
09:00 -2.2 °C -9.4 °C 34276.5 hPa SE 2.6 km/h 12.9 km/h 45 % 0 mm
09:15 -1.9 °C -10.2 °C 34273.1 hPa Calm   12.9 km/h 40 % 0 mm
09:30 -1.6 °C -10.6 °C 34269.7 hPa Calm   10.3 km/h 37 % 0 mm
09:45 -1.7 °C -10.3 °C 34269.7 hPa Calm   5.1 km/h 39 % 0 mm
10:00 -1.8 °C -9.7 °C 34266.3 hPa Calm     42 % 0 mm
10:15 -1.8 °C -9.9 °C 34262.9 hPa Calm     41 % 0 mm
10:30 -1.8 °C -10.9 °C 34266.3 hPa Calm   5.1 km/h 36 % 0 mm
10:45 -2 °C -10.5 °C 34266.3 hPa Calm   10.3 km/h 39 % 0 mm
11:00 -2.1 °C -10.6 °C 34262.9 hPa Calm     39 % 0 mm
11:15 -2.1 °C -10.2 °C 34259.5 hPa Calm     41 % 0 mm
11:30 -2.1 °C -10.8 °C 34252.8 hPa Calm     38 % 0 mm
11:45 -2.2 °C -10.4 °C 34249.4 hPa Calm     40 % 0 mm
12:00 -2.1 °C -11.1 °C 34246 hPa Calm     37 % 0 mm
12:15 -2.3 °C -10.7 °C 34242.6 hPa Calm     39 % 0 mm
12:30 -2.6 °C -10.1 °C 34239.2 hPa Calm     43 % 0 mm
12:45 -2.9 °C -8.5 °C 34242.6 hPa Calm     54 % 0 mm
13:00 -3.4 °C -8.8 °C 34239.2 hPa Calm     55 % 0 mm
13:15 -3.8 °C -8.4 °C 34239.2 hPa Calm     60 % 0 mm
13:30 -4.3 °C -8.1 °C 34242.6 hPa Calm     66 % 0 mm
Esan sääasema
Terveisin Weather Underground - 2.5 mb

Alkuperäinen skripti  Jim McMurry - jmcmurry@mwt.net Sovitettu myös templatelle  Wim van der Kuil - Leuven-Template.eu

Laitteet joita käytämme:

Sääasema
Davis VP2

Sääasemaohjelma
Cumulus

Sääaseman tietokone
Asus EeePC

Palveluntarjoaja
Suncomet

Davis VP2

Cumulus

Asus EeePC

Suncomet